Caraquet, Canada
Current Conditions -  °F | °C
As of 9:00 AM on Thursday 27 Nov 2014 (Local Time) from CZBF Reporting Station
Moderate Snow Moderate Snow  
Wind Chill: -8°   Ceiling: 400
Heat Index: -3°   Visibility: 0.5mi
Dew Point: -4°   Wind: 9mph
Humidity: 93%   Direction: 340°NNW
Pressure: 29.76"   Gusts: 17mph
Location:  47.78°N, 64.95°W
Report Text: CZBF 271300Z 34008G15KT 320V020 1/2SM SN VV004 M03/M04 A2976 RMK SN8 SLP080
Loading
Personal Weather Stations






























Interactive Weather Map New forecast layout! Learn more

10-Day Weather Forecast

Advertisements
Track Severe Weather on mobile